createdAt,value
2023-02-18T00:00:20.212Z,8.82
2023-02-18T00:02:47.283Z,9.55
2023-02-18T00:05:14.631Z,10.40
2023-02-18T00:07:41.660Z,12.13
2023-02-18T00:10:12.390Z,11.07
2023-02-18T00:12:39.485Z,11.40
2023-02-18T00:15:06.882Z,11.15
2023-02-18T00:17:34.558Z,11.63
2023-02-18T00:20:01.098Z,10.80
2023-02-18T00:22:27.645Z,12.00
2023-02-18T00:24:54.137Z,11.05
2023-02-18T00:27:20.636Z,12.18
2023-02-18T00:29:47.164Z,12.13
2023-02-18T00:32:13.771Z,12.87
2023-02-18T00:34:41.228Z,12.73
2023-02-18T00:37:08.247Z,12.43
2023-02-18T00:39:34.862Z,12.30
2023-02-18T00:42:01.383Z,12.48
2023-02-18T00:44:27.913Z,13.43
2023-02-18T00:46:54.446Z,13.50
2023-02-18T00:49:20.977Z,13.77
2023-02-18T00:51:47.517Z,13.27
2023-02-18T00:54:15.000Z,13.13
2023-02-18T00:56:41.582Z,13.30
2023-02-18T00:59:08.109Z,12.88
2023-02-18T01:01:35.332Z,12.43
2023-02-18T01:04:01.911Z,12.95
2023-02-18T01:06:28.534Z,11.77
2023-02-18T01:08:55.048Z,13.30
2023-02-18T01:11:21.582Z,12.50
2023-02-18T01:13:48.286Z,12.77
2023-02-18T01:16:14.862Z,11.75
2023-02-18T01:18:42.430Z,10.23
2023-02-18T01:21:09.685Z,10.77
2023-02-18T01:23:40.396Z,10.18
2023-02-18T01:26:08.313Z,9.48
2023-02-18T01:28:35.362Z,9.75
2023-02-18T01:31:09.493Z,10.07
2023-02-18T01:33:37.062Z,9.43
2023-02-18T01:36:04.170Z,10.00
2023-02-18T01:38:30.668Z,10.05
2023-02-18T01:40:57.186Z,8.27
2023-02-18T01:43:24.133Z,8.55
2023-02-18T01:46:00.138Z,8.53
2023-02-18T01:48:33.478Z,8.32
2023-02-18T01:51:08.316Z,7.28
2023-02-18T01:53:46.127Z,7.90
2023-02-18T01:56:20.121Z,7.70
2023-02-18T01:58:47.850Z,7.67
2023-02-18T02:01:15.445Z,7.70
2023-02-18T02:03:41.976Z,7.35
2023-02-18T02:06:17.219Z,8.35
2023-02-18T02:08:45.382Z,7.57
2023-02-18T02:11:23.088Z,8.33
2023-02-18T02:13:59.994Z,9.32
2023-02-18T02:16:38.245Z,8.95
2023-02-18T02:19:30.921Z,9.43
2023-02-18T02:22:09.778Z,8.90
2023-02-18T02:24:46.463Z,9.37
2023-02-18T02:27:21.399Z,8.82
2023-02-18T02:29:52.004Z,8.98
2023-02-18T02:32:41.906Z,9.90
2023-02-18T02:35:19.073Z,9.45
2023-02-18T02:37:51.009Z,9.37
2023-02-18T02:40:19.619Z,8.98
2023-02-18T02:43:17.131Z,9.52
2023-02-18T02:45:54.832Z,9.25
2023-02-18T02:48:43.491Z,9.43
2023-02-18T02:51:15.085Z,9.10
2023-02-18T02:53:43.137Z,10.18
2023-02-18T02:56:16.993Z,10.15
2023-02-18T02:58:47.248Z,11.18
2023-02-18T03:01:25.139Z,9.80
2023-02-18T03:04:19.589Z,11.03
2023-02-18T03:06:45.984Z,9.63
2023-02-18T03:09:32.784Z,9.50
2023-02-18T03:12:16.821Z,9.02
2023-02-18T03:14:54.110Z,9.63
2023-02-18T03:17:31.452Z,9.40
2023-02-18T03:20:10.222Z,8.70
2023-02-18T03:22:42.138Z,9.40
2023-02-18T03:25:10.393Z,10.60
2023-02-18T03:27:43.918Z,9.63
2023-02-18T03:30:16.203Z,9.50
2023-02-18T03:32:46.142Z,10.60
2023-02-18T03:35:15.939Z,8.73
2023-02-18T03:37:51.216Z,10.32
2023-02-18T03:40:19.097Z,8.07
2023-02-18T03:42:46.080Z,7.50
2023-02-18T03:45:12.760Z,7.72
2023-02-18T03:47:39.350Z,6.22
2023-02-18T03:50:07.512Z,6.72
2023-02-18T03:52:36.532Z,5.80
2023-02-18T03:55:05.567Z,6.00
2023-02-18T03:57:32.630Z,4.53
2023-02-18T04:00:00.271Z,4.60
2023-02-18T04:02:27.232Z,3.67
2023-02-18T04:04:53.767Z,3.35
2023-02-18T04:07:20.390Z,3.37
2023-02-18T04:09:46.894Z,3.00
2023-02-18T04:12:13.434Z,3.30
2023-02-18T04:14:39.883Z,2.30
2023-02-18T04:17:07.452Z,2.13
2023-02-18T04:19:34.248Z,1.57
2023-02-18T04:22:01.392Z,1.77
2023-02-18T04:24:27.999Z,1.98
2023-02-18T04:26:55.428Z,1.67
2023-02-18T04:29:21.977Z,1.40
2023-02-18T04:31:49.538Z,1.60
2023-02-18T04:34:16.204Z,1.85
2023-02-18T04:36:42.704Z,1.58
2023-02-18T04:39:09.298Z,1.80
2023-02-18T04:41:35.793Z,1.42
2023-02-18T04:44:02.318Z,1.63
2023-02-18T04:46:28.938Z,2.22
2023-02-18T04:48:55.497Z,2.50
2023-02-18T04:51:23.060Z,2.25
2023-02-18T04:53:49.630Z,1.92
2023-02-18T04:56:16.125Z,2.13
2023-02-18T04:58:42.679Z,2.70
2023-02-18T05:01:09.364Z,1.85
2023-02-18T05:03:35.955Z,2.53
2023-02-18T05:06:02.555Z,2.40
2023-02-18T05:08:29.176Z,2.60
2023-02-18T05:10:55.716Z,2.45
2023-02-18T05:13:22.922Z,2.30
2023-02-18T05:15:49.987Z,2.55
2023-02-18T05:18:16.560Z,3.38
2023-02-18T05:20:44.048Z,3.33
2023-02-18T05:23:10.560Z,3.22
2023-02-18T05:25:37.037Z,3.58
2023-02-18T05:28:03.710Z,3.20
2023-02-18T05:30:30.247Z,3.50
2023-02-18T05:32:56.800Z,2.93
2023-02-18T05:35:23.328Z,2.90
2023-02-18T05:37:51.207Z,3.15
2023-02-18T05:40:17.991Z,2.95
2023-02-18T05:42:44.468Z,3.20
2023-02-18T05:45:11.054Z,3.90
2023-02-18T05:47:37.611Z,3.72
2023-02-18T05:50:05.406Z,4.30
2023-02-18T05:52:31.870Z,5.25
2023-02-18T05:54:58.420Z,5.68
2023-02-18T05:57:25.772Z,6.03
2023-02-18T05:59:52.307Z,6.30
2023-02-18T06:02:18.856Z,7.75
2023-02-18T06:04:45.416Z,7.75
2023-02-18T06:07:13.219Z,7.68
2023-02-18T06:09:39.765Z,7.10
2023-02-18T06:12:06.516Z,7.95
2023-02-18T06:14:33.231Z,7.03
2023-02-18T06:17:00.708Z,7.05
2023-02-18T06:19:27.264Z,7.75
2023-02-18T06:21:54.180Z,7.30
2023-02-18T06:24:20.751Z,7.40
2023-02-18T06:26:47.267Z,7.43
2023-02-18T06:29:13.742Z,7.45
2023-02-18T06:31:40.282Z,7.10
2023-02-18T06:34:07.756Z,6.43
2023-02-18T06:36:34.360Z,7.25
2023-02-18T06:39:03.904Z,7.07
2023-02-18T06:41:30.411Z,7.72
2023-02-18T06:43:57.000Z,6.97
2023-02-18T06:46:23.871Z,7.00
2023-02-18T06:48:50.502Z,6.45
2023-02-18T06:51:17.293Z,5.80
2023-02-18T06:53:44.246Z,5.45
2023-02-18T06:56:11.510Z,5.57
2023-02-18T06:58:39.610Z,5.20
2023-02-18T07:01:06.232Z,5.30
2023-02-18T07:03:33.907Z,5.57
2023-02-18T07:06:00.461Z,5.03
2023-02-18T07:08:27.558Z,6.13
2023-02-18T07:10:54.085Z,6.10
2023-02-18T07:13:20.543Z,6.90
2023-02-18T07:15:47.015Z,6.25
2023-02-18T07:18:13.535Z,7.25
2023-02-18T07:20:40.104Z,6.47
2023-02-18T07:23:06.569Z,7.13
2023-02-18T07:25:33.070Z,6.43
2023-02-18T07:27:59.606Z,6.53
2023-02-18T07:30:26.198Z,6.07
2023-02-18T07:32:52.719Z,6.43
2023-02-18T07:35:19.457Z,6.77
2023-02-18T07:37:47.909Z,6.43
2023-02-18T07:40:17.153Z,7.30
2023-02-18T07:42:43.702Z,6.25
2023-02-18T07:45:11.369Z,6.72
2023-02-18T07:47:38.062Z,6.77
2023-02-18T07:50:06.543Z,5.97
2023-02-18T07:52:33.102Z,6.55
2023-02-18T07:54:59.622Z,6.05
2023-02-18T07:57:26.241Z,5.40
2023-02-18T07:59:52.777Z,5.70
2023-02-18T08:02:23.476Z,4.63
2023-02-18T08:04:50.407Z,5.22
2023-02-18T08:07:18.479Z,4.35
2023-02-18T08:09:46.032Z,3.55
2023-02-18T08:12:12.610Z,3.17
2023-02-18T08:14:39.077Z,2.95
2023-02-18T08:17:05.582Z,3.17
2023-02-18T08:19:32.195Z,2.45
2023-02-18T08:22:02.771Z,2.47
2023-02-18T08:24:29.776Z,2.03
2023-02-18T08:27:00.883Z,2.50
2023-02-18T08:29:28.597Z,1.50
2023-02-18T08:31:57.284Z,1.48
2023-02-18T08:34:23.941Z,1.10
2023-02-18T08:36:50.490Z,1.03
2023-02-18T08:39:17.048Z,1.20
2023-02-18T08:41:44.301Z,1.40
2023-02-18T08:44:10.881Z,1.85
2023-02-18T08:46:37.517Z,1.75
2023-02-18T08:49:05.536Z,1.27
2023-02-18T08:51:32.341Z,0.77
2023-02-18T08:53:58.883Z,1.27
2023-02-18T08:56:25.755Z,1.00
2023-02-18T08:58:52.348Z,1.77
2023-02-18T09:01:18.970Z,1.20
2023-02-18T09:03:45.420Z,0.95
2023-02-18T09:06:11.941Z,0.80
2023-02-18T09:08:38.576Z,0.90
2023-02-18T09:11:05.174Z,0.70
2023-02-18T09:13:33.455Z,1.10
2023-02-18T09:16:04.325Z,1.00
2023-02-18T09:18:32.264Z,1.33
2023-02-18T09:21:00.518Z,0.70
2023-02-18T09:23:29.674Z,0.80
2023-02-18T09:25:56.766Z,0.90
2023-02-18T09:28:23.628Z,1.08
2023-02-18T09:30:50.691Z,1.15
2023-02-18T09:33:18.670Z,1.10
2023-02-18T09:35:46.572Z,1.10
2023-02-18T09:38:17.365Z,1.13
2023-02-18T09:40:49.613Z,0.60
2023-02-18T09:43:27.245Z,0.70
2023-02-18T09:45:55.064Z,0.60
2023-02-18T09:48:28.943Z,1.02
2023-02-18T09:50:55.702Z,0.90
2023-02-18T09:53:24.472Z,0.88
2023-02-18T09:55:53.820Z,0.70
2023-02-18T09:58:26.041Z,1.00
2023-02-18T10:01:00.099Z,1.33
2023-02-18T10:03:27.687Z,1.00
2023-02-18T10:06:04.070Z,0.50
2023-02-18T10:08:36.693Z,0.77
2023-02-18T10:11:03.593Z,1.23
2023-02-18T10:13:33.111Z,1.23
2023-02-18T10:16:01.690Z,0.80
2023-02-18T10:18:32.639Z,0.73
2023-02-18T10:21:08.356Z,0.73
2023-02-18T10:23:39.074Z,0.75
2023-02-18T10:26:10.852Z,1.25
2023-02-18T10:28:38.186Z,0.90
2023-02-18T10:31:11.397Z,0.70
2023-02-18T10:33:48.950Z,1.13
2023-02-18T10:36:17.214Z,11.90
2023-02-18T10:39:04.302Z,15.02
2023-02-18T10:42:02.194Z,1.37
2023-02-18T10:44:35.077Z,11.77
2023-02-18T10:47:19.644Z,1.75
2023-02-18T10:49:57.785Z,1.13
2023-02-18T10:52:27.616Z,1.05
2023-02-18T10:55:04.672Z,0.80
2023-02-18T10:57:32.298Z,0.90
2023-02-18T11:00:16.201Z,0.98
2023-02-18T11:02:43.635Z,1.77
2023-02-18T11:05:25.494Z,0.98
2023-02-18T11:07:56.649Z,1.60
2023-02-18T11:10:29.839Z,0.93
2023-02-18T11:13:03.653Z,0.77
2023-02-18T11:15:30.427Z,1.05
2023-02-18T11:18:14.189Z,0.73
2023-02-18T11:20:40.894Z,0.70
2023-02-18T11:23:07.366Z,1.40
2023-02-18T11:25:36.627Z,1.00
2023-02-18T11:28:21.218Z,0.88
2023-02-18T11:30:54.157Z,0.90
2023-02-18T11:33:29.443Z,0.77
2023-02-18T11:35:59.067Z,0.88
2023-02-18T11:38:34.227Z,0.70
2023-02-18T11:41:11.894Z,0.80
2023-02-18T11:43:43.221Z,0.80
2023-02-18T11:46:16.641Z,0.87
2023-02-18T11:48:43.493Z,0.98
2023-02-18T11:51:19.800Z,0.68
2023-02-18T11:54:06.335Z,0.90
2023-02-18T11:56:36.974Z,0.80
2023-02-18T11:59:04.772Z,0.60
2023-02-18T12:01:34.309Z,1.05
2023-02-18T12:04:08.716Z,0.60
2023-02-18T12:06:41.821Z,0.60
2023-02-18T12:09:29.867Z,0.52
2023-02-18T12:12:00.754Z,1.00
2023-02-18T12:14:27.698Z,1.35
2023-02-18T12:17:28.691Z,0.60
2023-02-18T12:20:15.094Z,0.60
2023-02-18T12:22:43.959Z,0.98
2023-02-18T12:25:25.486Z,1.37
2023-02-18T12:28:10.719Z,36.78
2023-02-18T12:30:59.167Z,3.60
2023-02-18T12:33:46.845Z,3.17
2023-02-18T12:36:27.483Z,1.65
2023-02-18T12:39:16.836Z,0.90
2023-02-18T12:41:47.386Z,0.70
2023-02-18T12:44:21.877Z,0.75
2023-02-18T12:47:13.592Z,0.95
2023-02-18T12:50:02.582Z,0.73
2023-02-18T12:52:50.156Z,0.63
2023-02-18T12:55:25.693Z,0.90
2023-02-18T12:58:17.389Z,0.40
2023-02-18T13:00:59.282Z,0.32
2023-02-18T13:03:47.432Z,0.50
2023-02-18T13:06:32.556Z,0.40
2023-02-18T13:09:26.717Z,0.50
2023-02-18T13:12:06.832Z,0.60
2023-02-18T13:14:46.496Z,0.52
2023-02-18T13:17:17.282Z,0.30
2023-02-18T13:19:54.988Z,0.90
2023-02-18T13:22:24.584Z,0.40
2023-02-18T13:24:55.654Z,0.65
2023-02-18T13:27:37.066Z,0.85
2023-02-18T13:30:22.308Z,0.47
2023-02-18T13:33:01.925Z,0.40
2023-02-18T13:35:57.404Z,0.60
2023-02-18T13:38:42.571Z,0.47
2023-02-18T13:41:09.987Z,0.63
2023-02-18T13:43:48.024Z,0.60
2023-02-18T13:46:30.001Z,0.57
2023-02-18T13:49:00.713Z,0.47
2023-02-18T13:51:29.394Z,0.50
2023-02-18T13:54:04.725Z,0.50
2023-02-18T13:56:36.545Z,0.60
2023-02-18T13:59:11.885Z,0.70
2023-02-18T14:01:42.603Z,0.50
2023-02-18T14:04:36.468Z,0.40
2023-02-18T14:07:25.118Z,0.40
2023-02-18T14:09:54.300Z,0.40
2023-02-18T14:12:37.752Z,1.40
2023-02-18T14:15:27.523Z,0.52
2023-02-18T14:18:16.269Z,0.60
2023-02-18T14:20:48.060Z,0.60
2023-02-18T14:23:18.867Z,0.63
2023-02-18T14:25:53.739Z,0.83
2023-02-18T14:28:33.501Z,0.50
2023-02-18T14:31:04.338Z,0.60
2023-02-18T14:33:34.495Z,0.70
2023-02-18T14:36:16.234Z,0.50
2023-02-18T14:38:55.513Z,0.40
2023-02-18T14:41:37.408Z,0.70
2023-02-18T14:44:24.460Z,0.40
2023-02-18T14:47:01.519Z,0.52
2023-02-18T14:49:38.051Z,0.50
2023-02-18T14:52:07.437Z,0.50
2023-02-18T14:54:34.778Z,0.45
2023-02-18T14:57:07.595Z,0.50
2023-02-18T14:59:40.195Z,0.45
2023-02-18T15:02:23.089Z,0.57
2023-02-18T15:04:50.662Z,1.50
2023-02-18T15:07:20.827Z,0.57
2023-02-18T15:09:50.603Z,0.63
2023-02-18T15:12:23.388Z,0.40
2023-02-18T15:14:53.813Z,0.60
2023-02-18T15:17:25.589Z,0.40
2023-02-18T15:19:57.333Z,0.70
2023-02-18T15:22:26.872Z,0.60
2023-02-18T15:24:55.829Z,0.50
2023-02-18T15:27:30.077Z,0.70
2023-02-18T15:29:59.270Z,0.60
2023-02-18T15:32:28.232Z,0.60
2023-02-18T15:35:00.873Z,0.68
2023-02-18T15:37:28.199Z,0.47
2023-02-18T15:39:54.883Z,0.40
2023-02-18T15:42:23.484Z,0.40
2023-02-18T15:44:55.267Z,0.50
2023-02-18T15:47:22.936Z,0.73
2023-02-18T15:49:54.145Z,0.77
2023-02-18T15:52:27.959Z,0.40
2023-02-18T15:54:56.662Z,0.80
2023-02-18T15:57:29.269Z,0.63
2023-02-18T16:00:04.394Z,0.80
2023-02-18T16:02:33.456Z,0.50
2023-02-18T16:05:04.987Z,0.80
2023-02-18T16:07:48.885Z,0.80
2023-02-18T16:10:20.468Z,1.00
2023-02-18T16:12:52.892Z,1.23
2023-02-18T16:15:26.924Z,1.40
2023-02-18T16:17:53.477Z,1.02
2023-02-18T16:20:32.795Z,1.03
2023-02-18T16:23:03.414Z,1.00
2023-02-18T16:25:49.547Z,0.85
2023-02-18T16:28:27.778Z,0.90
2023-02-18T16:30:54.335Z,0.75
2023-02-18T16:33:20.866Z,0.90
2023-02-18T16:35:50.357Z,1.08
2023-02-18T16:38:21.300Z,0.90
2023-02-18T16:40:48.375Z,1.13
2023-02-18T16:43:21.457Z,1.38
2023-02-18T16:45:53.941Z,1.43
2023-02-18T16:48:28.143Z,1.50
2023-02-18T16:50:54.925Z,1.40
2023-02-18T16:53:21.693Z,1.23
2023-02-18T16:55:50.924Z,1.70
2023-02-18T16:58:18.857Z,1.50
2023-02-18T17:00:46.593Z,1.50
2023-02-18T17:03:13.734Z,1.42
2023-02-18T17:05:41.064Z,2.03
2023-02-18T17:08:17.187Z,1.45
2023-02-18T17:10:43.970Z,1.57
2023-02-18T17:13:16.113Z,1.50
2023-02-18T17:15:43.675Z,1.55
2023-02-18T17:18:10.571Z,1.85
2023-02-18T17:20:38.567Z,1.73
2023-02-18T17:23:06.538Z,1.87
2023-02-18T17:25:38.371Z,1.85
2023-02-18T17:28:05.653Z,2.08
2023-02-18T17:30:37.883Z,2.15
2023-02-18T17:33:05.962Z,1.85
2023-02-18T17:35:32.991Z,2.07
2023-02-18T17:37:59.580Z,2.03
2023-02-18T17:40:28.386Z,2.20
2023-02-18T17:42:56.266Z,2.10
2023-02-18T17:45:29.363Z,2.05
2023-02-18T17:47:57.289Z,2.00
2023-02-18T17:50:24.778Z,2.45
2023-02-18T17:52:51.467Z,1.95
2023-02-18T17:55:23.227Z,1.60
2023-02-18T17:57:51.193Z,2.05
2023-02-18T18:00:23.765Z,2.13
2023-02-18T18:02:50.379Z,1.83
2023-02-18T18:05:22.816Z,2.53
2023-02-18T18:07:50.479Z,2.08
2023-02-18T18:10:18.760Z,2.28
2023-02-18T18:12:45.756Z,2.00
2023-02-18T18:15:23.684Z,2.03
2023-02-18T18:17:50.438Z,2.33
2023-02-18T18:20:17.678Z,2.83
2023-02-18T18:22:44.883Z,2.85
2023-02-18T18:25:20.561Z,3.30
2023-02-18T18:27:47.729Z,3.47
2023-02-18T18:30:14.456Z,3.22
2023-02-18T18:32:41.266Z,3.47
2023-02-18T18:35:19.851Z,3.70
2023-02-18T18:37:46.800Z,3.97
2023-02-18T18:40:13.661Z,5.03
2023-02-18T18:42:40.270Z,4.72
2023-02-18T18:45:07.684Z,4.75
2023-02-18T18:47:34.177Z,5.35
2023-02-18T18:50:00.723Z,5.40
2023-02-18T18:52:27.426Z,5.95
2023-02-18T18:54:54.008Z,6.20
2023-02-18T18:57:21.657Z,6.60
2023-02-18T18:59:48.238Z,6.60
2023-02-18T19:02:16.610Z,6.43
2023-02-18T19:04:43.200Z,6.00
2023-02-18T19:07:09.666Z,7.07
2023-02-18T19:09:36.197Z,7.30
2023-02-18T19:12:02.852Z,7.95
2023-02-18T19:14:29.389Z,7.83
2023-02-18T19:16:56.208Z,9.10
2023-02-18T19:19:25.662Z,9.30
2023-02-18T19:21:53.456Z,9.60
2023-02-18T19:24:20.020Z,9.77
2023-02-18T19:26:46.530Z,8.60
2023-02-18T19:29:13.028Z,9.52
2023-02-18T19:31:39.605Z,10.60
2023-02-18T19:34:06.336Z,11.02
2023-02-18T19:36:33.823Z,9.32
2023-02-18T19:39:00.356Z,8.97
2023-02-18T19:41:28.750Z,9.32
2023-02-18T19:43:55.321Z,9.73
2023-02-18T19:46:21.850Z,9.60
2023-02-18T19:48:52.318Z,9.63
2023-02-18T19:51:20.603Z,9.87
2023-02-18T19:53:47.539Z,9.95
2023-02-18T19:56:14.280Z,9.77
2023-02-18T19:58:41.089Z,10.02
2023-02-18T20:01:12.371Z,10.07
2023-02-18T20:03:39.875Z,10.20
2023-02-18T20:06:06.546Z,10.00
2023-02-18T20:08:36.877Z,10.07
2023-02-18T20:11:05.589Z,10.43
2023-02-18T20:13:32.218Z,9.95
2023-02-18T20:15:59.661Z,10.03
2023-02-18T20:18:26.235Z,10.43
2023-02-18T20:20:52.802Z,10.18
2023-02-18T20:23:19.421Z,9.77
2023-02-18T20:25:47.612Z,10.43
2023-02-18T20:28:14.820Z,8.90
2023-02-18T20:30:41.491Z,8.88
2023-02-18T20:33:08.099Z,9.57
2023-02-18T20:35:34.615Z,8.57
2023-02-18T20:38:01.340Z,8.02
2023-02-18T20:40:28.335Z,8.37
2023-02-18T20:42:55.034Z,8.25
2023-02-18T20:45:23.855Z,8.35
2023-02-18T20:47:50.426Z,7.15
2023-02-18T20:50:17.095Z,7.45
2023-02-18T20:52:43.661Z,6.77
2023-02-18T20:55:10.168Z,6.75
2023-02-18T20:57:36.766Z,6.25
2023-02-18T21:00:04.504Z,6.95
2023-02-18T21:02:31.173Z,6.00
2023-02-18T21:04:57.621Z,6.80
2023-02-18T21:07:24.147Z,6.25
2023-02-18T21:09:50.648Z,5.72
2023-02-18T21:12:17.211Z,6.10
2023-02-18T21:14:43.784Z,5.85
2023-02-18T21:17:10.271Z,5.03
2023-02-18T21:19:36.892Z,5.18
2023-02-18T21:22:03.489Z,5.10
2023-02-18T21:24:32.915Z,5.78
2023-02-18T21:26:59.472Z,6.22
2023-02-18T21:29:26.032Z,7.00
2023-02-18T21:31:52.658Z,7.22
2023-02-18T21:34:19.255Z,8.15
2023-02-18T21:36:45.953Z,9.23
2023-02-18T21:39:12.496Z,9.25
2023-02-18T21:41:41.090Z,9.53
2023-02-18T21:44:07.979Z,9.60
2023-02-18T21:46:35.379Z,10.63
2023-02-18T21:49:02.565Z,9.85
2023-02-18T21:51:48.882Z,10.75
2023-02-18T21:54:16.664Z,9.80
2023-02-18T21:56:43.580Z,10.85
2023-02-18T21:59:10.296Z,11.15
2023-02-18T22:01:37.766Z,10.65
2023-02-18T22:04:04.529Z,10.50
2023-02-18T22:06:31.194Z,11.50
2023-02-18T22:09:00.978Z,10.77
2023-02-18T22:11:28.760Z,10.90
2023-02-18T22:13:55.473Z,10.32
2023-02-18T22:16:22.231Z,10.75
2023-02-18T22:18:50.068Z,10.37
2023-02-18T22:21:16.715Z,9.98
2023-02-18T22:23:43.593Z,9.85
2023-02-18T22:26:10.608Z,8.73
2023-02-18T22:28:37.329Z,9.52
2023-02-18T22:31:08.532Z,9.10
2023-02-18T22:33:35.686Z,9.32
2023-02-18T22:36:07.488Z,8.50
2023-02-18T22:38:37.016Z,9.10
2023-02-18T22:41:07.958Z,7.20
2023-02-18T22:43:35.639Z,8.33
2023-02-18T22:46:03.774Z,7.57
2023-02-18T22:48:32.587Z,8.18
2023-02-18T22:51:06.606Z,7.20
2023-02-18T22:53:34.330Z,6.78
2023-02-18T22:56:03.620Z,6.03
2023-02-18T22:58:30.369Z,6.65
2023-02-18T23:00:57.444Z,6.47
2023-02-18T23:03:23.967Z,5.82
2023-02-18T23:05:50.524Z,5.32
2023-02-18T23:08:17.061Z,5.40
2023-02-18T23:10:43.593Z,5.70
2023-02-18T23:13:11.018Z,5.70
2023-02-18T23:15:37.614Z,5.40
2023-02-18T23:18:04.392Z,5.95
2023-02-18T23:20:49.580Z,5.67
2023-02-18T23:23:16.133Z,5.22
2023-02-18T23:25:42.658Z,5.05
2023-02-18T23:28:09.138Z,5.38
2023-02-18T23:30:35.694Z,5.07
2023-02-18T23:33:02.230Z,5.03
2023-02-18T23:35:28.724Z,4.50
2023-02-18T23:38:05.197Z,5.13
2023-02-18T23:40:32.178Z,4.70
2023-02-18T23:42:58.663Z,4.97
2023-02-18T23:45:25.216Z,4.97
2023-02-18T23:47:51.795Z,4.47
2023-02-18T23:50:18.871Z,4.43
2023-02-18T23:52:47.622Z,4.97
2023-02-18T23:55:14.144Z,4.50
2023-02-18T23:57:40.631Z,4.80
